Time;durP1;ratioP1;P1;durP2;ratioP2;P2;SDS_P1;SDS_P2;PMS_P1;PMS_P2;Temp;Humidity;BMP_temperature;BMP_pressure;BME280_temperature;BME280_humidity;BME280_pressure;Samples;Min_cycle;Max_cycle;Signal;HPM_P1;HPM_P2
2020/12/29 00:01:35;;;;;;;3.40;2.10;;;3.40;99.90;;;;;;5095430;28;20457;-78
2020/12/29 00:04:03;;;;;;;2.33;2.13;;;3.50;99.90;;;;;;5105944;28;20434;-78
2020/12/29 00:06:28;;;;;;;2.20;2.00;;;3.20;99.90;;;;;;5090305;28;20426;-78
2020/12/29 00:08:54;;;;;;;2.20;2.00;;;3.40;99.90;;;;;;5091846;28;20473;-78
2020/12/29 00:11:20;;;;;;;2.60;2.40;;;3.30;99.90;;;;;;5090455;28;20275;-78
2020/12/29 00:13:48;;;;;;;2.20;2.00;;;3.10;99.90;;;;;;5089820;28;20261;-77
2020/12/29 00:16:14;;;;;;;5.93;2.10;;;3.30;99.90;;;;;;5090294;28;20277;-77
2020/12/29 00:18:40;;;;;;;3.23;2.20;;;3.20;99.90;;;;;;5091645;28;20931;-78
2020/12/29 00:21:05;;;;;;;2.40;2.20;;;3.40;99.90;;;;;;5090122;28;20446;-78
2020/12/29 00:23:31;;;;;;;3.30;2.07;;;3.50;99.90;;;;;;5089604;28;20737;-78
2020/12/29 00:25:57;;;;;;;2.13;1.93;;;3.30;99.90;;;;;;5091510;28;20263;-78
2020/12/29 00:28:23;;;;;;;2.50;2.30;;;3.60;99.90;;;;;;5090222;28;20188;-78
2020/12/29 00:30:49;;;;;;;1.93;1.80;;;3.60;99.90;;;;;;5088425;28;20426;-78
2020/12/29 00:33:14;;;;;;;2.50;2.17;;;3.50;99.90;;;;;;5089245;28;20191;-77
2020/12/29 00:35:40;;;;;;;3.10;2.03;;;3.60;99.90;;;;;;5091080;28;20192;-77
2020/12/29 00:38:06;;;;;;;2.47;2.20;;;3.50;99.90;;;;;;5091462;28;20212;-77
2020/12/29 00:40:31;;;;;;;2.70;2.50;;;3.60;99.90;;;;;;5091097;28;20573;-77
2020/12/29 00:42:57;;;;;;;3.73;2.20;;;3.60;99.90;;;;;;5089607;28;20206;-77
2020/12/29 00:45:23;;;;;;;4.47;2.33;;;3.60;99.90;;;;;;5090826;28;20211;-77
2020/12/29 00:47:48;;;;;;;2.80;2.10;;;3.60;99.90;;;;;;5091181;28;20275;-78
2020/12/29 00:50:14;;;;;;;3.00;2.40;;;3.60;99.90;;;;;;5089330;28;20177;-77
2020/12/29 00:52:40;;;;;;;2.33;2.13;;;3.70;99.90;;;;;;5089693;28;20192;-77
2020/12/29 00:55:05;;;;;;;3.70;2.33;;;3.70;99.90;;;;;;5090421;28;20238;-77
2020/12/29 00:57:31;;;;;;;2.50;2.30;;;3.60;99.90;;;;;;5089472;28;20208;-77
2020/12/29 00:59:57;;;;;;;3.53;2.30;;;3.50;99.90;;;;;;5072663;28;20702;-77
2020/12/29 01:02:22;;;;;;;3.27;2.37;;;3.50;99.90;;;;;;5072701;28;20184;-77
2020/12/29 01:04:48;;;;;;;2.53;2.07;;;3.50;99.90;;;;;;5089725;28;20187;-77
2020/12/29 01:07:16;;;;;;;2.40;2.10;;;3.60;99.90;;;;;;5089419;28;20241;-78
2020/12/29 01:09:41;;;;;;;2.53;2.33;;;3.60;99.90;;;;;;5090495;28;20547;-78
2020/12/29 01:12:07;;;;;;;2.30;2.00;;;3.40;99.90;;;;;;5106463;28;20425;-78
2020/12/29 01:14:33;;;;;;;2.30;2.10;;;3.10;99.90;;;;;;5088618;28;20689;-77
2020/12/29 01:16:59;;;;;;;2.73;2.53;;;3.20;99.90;;;;;;5090535;28;20466;-78
2020/12/29 01:19:24;;;;;;;2.87;2.60;;;3.10;99.90;;;;;;5089084;28;20786;-77
2020/12/29 01:21:55;;;;;;;2.50;2.27;;;2.90;99.90;;;;;;5090590;28;20720;-77
2020/12/29 01:24:21;;;;;;;3.03;2.40;;;2.90;99.90;;;;;;5089939;28;20233;-77
2020/12/29 01:26:46;;;;;;;2.93;2.73;;;2.80;99.90;;;;;;5090379;28;20974;-77
2020/12/29 01:29:12;;;;;;;3.10;2.53;;;2.60;99.90;;;;;;5090376;28;20188;-77
2020/12/29 01:31:38;;;;;;;2.80;2.07;;;2.60;99.90;;;;;;5087872;28;20184;-77
2020/12/29 01:34:03;;;;;;;4.30;2.20;;;2.50;99.90;;;;;;5088062;28;20267;-77
2020/12/29 01:36:29;;;;;;;2.50;2.30;;;2.60;99.90;;;;;;5090069;28;20239;-77
2020/12/29 01:38:55;;;;;;;2.83;2.40;;;2.30;99.90;;;;;;5090248;28;20192;-77
2020/12/29 01:41:22;;;;;;;3.73;2.40;;;2.40;99.90;;;;;;5088702;28;21219;-77
2020/12/29 01:43:49;;;;;;;3.10;2.80;;;2.50;99.90;;;;;;5089415;28;20421;-77
2020/12/29 01:46:14;;;;;;;3.03;2.13;;;2.30;99.90;;;;;;5089631;28;20838;-77
2020/12/29 01:48:41;;;;;;;2.50;2.30;;;2.20;99.90;;;;;;5089716;28;20437;-77
2020/12/29 01:51:08;;;;;;;2.33;2.13;;;2.40;99.90;;;;;;5089835;28;20426;-77
2020/12/29 01:53:33;;;;;;;2.33;2.13;;;2.20;99.90;;;;;;5089404;28;20773;-77
2020/12/29 01:56:02;;;;;;;3.10;2.30;;;2.40;99.90;;;;;;5088516;28;20426;-77
2020/12/29 01:58:27;;;;;;;2.87;2.30;;;2.30;99.90;;;;;;5089877;28;20185;-77
2020/12/29 02:00:53;;;;;;;2.57;2.37;;;2.20;99.90;;;;;;5089813;28;20422;-77
2020/12/29 02:03:19;;;;;;;2.70;2.50;;;2.30;99.90;;;;;;5089115;28;20180;-77
2020/12/29 02:05:48;;;;;;;2.90;2.60;;;2.20;99.90;;;;;;5089781;28;20267;-77
2020/12/29 02:08:18;;;;;;;3.87;2.30;;;2.20;99.90;;;;;;5089634;28;20646;-77
2020/12/29 02:10:45;;;;;;;3.10;2.20;;;2.20;99.90;;;;;;5089842;28;20423;-77
2020/12/29 02:13:11;;;;;;;3.37;2.30;;;2.00;99.90;;;;;;5087555;28;20417;-77
2020/12/29 02:15:36;;;;;;;3.13;2.63;;;2.10;99.90;;;;;;5089293;28;20521;-77
2020/12/29 02:18:03;;;;;;;2.77;2.27;;;1.90;99.90;;;;;;5087979;28;20708;-78
2020/12/29 02:20:29;;;;;;;4.50;2.90;;;1.70;99.90;;;;;;5089356;28;20245;-77
2020/12/29 02:22:54;;;;;;;2.83;2.60;;;1.80;99.90;;;;;;5088691;28;20413;-77
2020/12/29 02:25:20;;;;;;;2.83;2.63;;;1.70;99.90;;;;;;5088235;28;20513;-77
2020/12/29 02:27:48;;;;;;;3.20;2.50;;;1.70;99.90;;;;;;5088205;28;20192;-78
2020/12/29 02:30:15;;;;;;;2.40;2.10;;;2.00;99.90;;;;;;5089319;28;20180;-77
2020/12/29 02:32:40;;;;;;;3.80;2.60;;;2.00;99.90;;;;;;5075276;28;20459;-77
2020/12/29 02:35:10;;;;;;;2.47;2.27;;;1.80;99.90;;;;;;5087763;28;20442;-77
2020/12/29 02:37:36;;;;;;;3.53;2.50;;;1.80;99.90;;;;;;5088225;28;20239;-78
2020/12/29 02:40:03;;;;;;;2.87;2.60;;;1.80;99.90;;;;;;5089437;28;20419;-78
2020/12/29 02:42:28;;;;;;;4.17;2.57;;;1.80;99.90;;;;;;5088197;28;20172;-78
2020/12/29 02:44:54;;;;;;;2.17;1.97;;;1.90;99.90;;;;;;5088488;28;20793;-77
2020/12/29 02:47:20;;;;;;;2.83;2.63;;;1.90;99.90;;;;;;5089404;28;20838;-78
2020/12/29 02:49:45;;;;;;;3.50;2.67;;;2.10;99.90;;;;;;5071292;28;20189;-78
2020/12/29 02:52:11;;;;;;;6.33;2.80;;;1.90;99.90;;;;;;5088085;28;20287;-78
2020/12/29 02:54:37;;;;;;;3.03;2.40;;;2.10;99.90;;;;;;5070700;28;20611;-77
2020/12/29 02:57:05;;;;;;;3.50;2.47;;;2.00;99.90;;;;;;5071257;28;20437;-77
2020/12/29 02:59:33;;;;;;;2.67;2.47;;;1.80;99.90;;;;;;5090441;28;20429;-78
2020/12/29 03:01:59;;;;;;;2.50;2.00;;;1.90;99.90;;;;;;5093441;28;20426;-78
2020/12/29 03:04:24;;;;;;;3.70;2.40;;;2.10;99.90;;;;;;5091268;28;20638;-78
2020/12/29 03:06:50;;;;;;;3.23;2.37;;;2.20;99.90;;;;;;5093229;28;20189;-77
2020/12/29 03:09:16;;;;;;;2.97;2.67;;;2.20;99.90;;;;;;5074978;28;20199;-77
2020/12/29 03:11:44;;;;;;;2.70;2.50;;;2.10;99.90;;;;;;5093104;28;20184;-77
2020/12/29 03:14:10;;;;;;;3.43;2.80;;;2.00;99.90;;;;;;5090852;28;20798;-77
2020/12/29 03:16:37;;;;;;;3.33;2.60;;;1.90;99.90;;;;;;5092726;28;20472;-77
2020/12/29 03:19:03;;;;;;;2.67;2.30;;;2.00;99.90;;;;;;5092802;28;21077;-77
2020/12/29 03:21:30;;;;;;;2.30;2.10;;;1.90;99.90;;;;;;5092988;28;20422;-78
2020/12/29 03:23:55;;;;;;;3.20;2.80;;;1.90;99.90;;;;;;5092134;28;20448;-77
2020/12/29 03:26:23;;;;;;;2.80;2.50;;;2.10;99.90;;;;;;5092599;28;20509;-77
2020/12/29 03:28:49;;;;;;;3.00;2.53;;;2.00;99.90;;;;;;5092987;28;20188;-77
2020/12/29 03:31:16;;;;;;;2.43;2.23;;;1.90;99.90;;;;;;5091679;28;20413;-77
2020/12/29 03:33:42;;;;;;;2.73;2.53;;;1.90;99.90;;;;;;5092035;28;20842;-77
2020/12/29 03:36:08;;;;;;;2.70;2.50;;;2.10;99.90;;;;;;5091180;28;20458;-77
2020/12/29 03:38:34;;;;;;;2.90;2.67;;;2.00;99.90;;;;;;5092545;28;20476;-77
2020/12/29 03:41:00;;;;;;;2.73;2.53;;;2.00;99.90;;;;;;5090924;28;20188;-77
2020/12/29 03:43:26;;;;;;;2.60;2.40;;;1.90;99.90;;;;;;5090696;28;20188;-77
2020/12/29 03:45:52;;;;;;;2.73;2.53;;;2.20;99.90;;;;;;5091186;28;20418;-77
2020/12/29 03:48:20;;;;;;;2.30;2.10;;;2.20;99.90;;;;;;5074258;28;20204;-78
2020/12/29 03:50:46;;;;;;;2.93;2.70;;;1.90;99.90;;;;;;5091030;28;20187;-77
2020/12/29 03:53:12;;;;;;;2.83;2.47;;;2.00;99.90;;;;;;5091797;28;20467;-77
2020/12/29 03:55:38;;;;;;;3.40;2.70;;;1.90;99.90;;;;;;5090646;28;20424;-77
2020/12/29 03:58:04;;;;;;;3.30;2.67;;;1.80;99.90;;;;;;5088511;28;20449;-77
2020/12/29 04:00:30;;;;;;;4.00;2.43;;;1.80;99.90;;;;;;5079676;28;20276;-77
2020/12/29 04:02:56;;;;;;;3.57;2.20;;;2.10;99.90;;;;;;5091482;28;20482;-77
2020/12/29 04:05:22;;;;;;;2.63;2.43;;;2.10;99.90;;;;;;5091781;28;20499;-78
2020/12/29 04:07:50;;;;;;;3.00;2.70;;;2.40;99.90;;;;;;5090827;28;20814;-77
2020/12/29 04:10:16;;;;;;;3.33;2.80;;;2.30;99.90;;;;;;5090350;28;20192;-77
2020/12/29 04:12:42;;;;;;;2.60;2.40;;;2.10;99.90;;;;;;5073564;28;20483;-77
2020/12/29 04:15:09;;;;;;;2.57;2.37;;;2.30;99.90;;;;;;5089693;28;20423;-77
2020/12/29 04:17:38;;;;;;;3.60;2.67;;;2.40;99.90;;;;;;5091186;28;20488;-78
2020/12/29 04:20:09;;;;;;;2.67;2.40;;;2.30;99.90;;;;;;5091597;28;20503;-78
2020/12/29 04:22:36;;;;;;;2.73;2.50;;;2.40;99.90;;;;;;5089920;28;20427;-77
2020/12/29 04:25:04;;;;;;;2.63;2.43;;;2.30;99.90;;;;;;5090691;28;20773;-78
2020/12/29 04:27:30;;;;;;;3.00;2.70;;;2.40;99.90;;;;;;5089706;28;20430;-77
2020/12/29 04:29:55;;;;;;;3.37;2.27;;;2.30;99.90;;;;;;5091520;28;20482;-78
2020/12/29 04:32:21;;;;;;;4.50;2.97;;;2.60;99.90;;;;;;5089094;28;20195;-77
2020/12/29 04:34:47;;;;;;;2.37;2.07;;;2.40;99.90;;;;;;5089661;28;20207;-78
2020/12/29 04:37:14;;;;;;;2.93;2.50;;;2.40;99.90;;;;;;5090910;28;20224;-77
2020/12/29 04:39:40;;;;;;;3.00;2.60;;;2.70;99.90;;;;;;5089847;28;20418;-77
2020/12/29 04:42:13;;;;;;;3.87;2.70;;;2.40;99.90;;;;;;5090814;28;20763;-77
2020/12/29 04:44:39;;;;;;;5.50;3.10;;;2.60;99.90;;;;;;5089446;28;20417;-77
2020/12/29 04:47:09;;;;;;;2.90;2.47;;;2.70;99.90;;;;;;5090913;28;20418;-78
2020/12/29 04:49:36;;;;;;;2.67;2.47;;;2.80;99.90;;;;;;5090364;28;20450;-77
2020/12/29 04:52:05;;;;;;;2.37;2.10;;;2.80;99.90;;;;;;5088518;28;20422;-77
2020/12/29 04:54:38;;;;;;;3.37;2.83;;;2.60;99.90;;;;;;5089890;28;20419;-77
2020/12/29 04:57:06;;;;;;;2.30;2.07;;;2.80;99.90;;;;;;5088879;28;20454;-77
2020/12/29 04:59:33;;;;;;;4.60;2.90;;;2.60;99.90;;;;;;5089337;28;20425;-77
2020/12/29 05:01:59;;;;;;;3.20;2.30;;;2.70;99.90;;;;;;5090751;28;20439;-77
2020/12/29 05:04:25;;;;;;;3.50;3.03;;;2.90;99.90;;;;;;5089920;28;20838;-77
2020/12/29 05:06:52;;;;;;;2.50;2.30;;;2.80;99.90;;;;;;5090930;28;20785;-77
2020/12/29 05:09:22;;;;;;;4.53;2.40;;;2.60;99.90;;;;;;5072471;28;20970;-77
2020/12/29 05:11:49;;;;;;;2.73;2.53;;;2.80;99.90;;;;;;5089619;28;20497;-77
2020/12/29 05:14:14;;;;;;;3.83;2.93;;;2.70;99.90;;;;;;5089993;28;20812;-77
2020/12/29 05:16:41;;;;;;;3.83;2.50;;;2.80;99.90;;;;;;5089281;28;20474;-77
2020/12/29 05:19:08;;;;;;;3.00;2.63;;;2.90;99.90;;;;;;5088974;28;20188;-77
2020/12/29 05:21:36;;;;;;;3.53;3.23;;;3.00;99.90;;;;;;5088723;28;20415;-77
2020/12/29 05:24:11;;;;;;;3.60;2.57;;;2.90;99.90;;;;;;5088710;28;20414;-77
2020/12/29 05:26:37;;;;;;;3.63;3.33;;;3.10;99.90;;;;;;5090478;28;20418;-77
2020/12/29 05:29:08;;;;;;;4.17;3.47;;;2.90;99.90;;;;;;5090244;28;20549;-77
2020/12/29 05:31:35;;;;;;;3.80;3.37;;;3.00;99.90;;;;;;5089155;28;20510;-77
2020/12/29 05:34:02;;;;;;;3.90;3.23;;;3.10;99.90;;;;;;5088388;28;20471;-78
2020/12/29 05:36:29;;;;;;;5.03;2.60;;;3.10;99.90;;;;;;5089119;28;21045;-77
2020/12/29 05:38:56;;;;;;;3.77;2.80;;;3.00;99.90;;;;;;5072111;28;20422;-77
2020/12/29 05:41:23;;;;;;;3.67;2.90;;;3.30;99.90;;;;;;5089048;28;20431;-77
2020/12/29 05:44:30;;;;;;;4.27;3.23;;;3.30;99.90;;;;;;5089352;28;20427;-77
2020/12/29 05:46:58;;;;;;;2.93;2.67;;;3.00;99.90;;;;;;5087922;28;20404;-77
2020/12/29 05:49:25;;;;;;;4.93;3.27;;;2.80;99.90;;;;;;5089104;28;20418;-77
2020/12/29 05:51:52;;;;;;;4.00;2.80;;;3.00;99.90;;;;;;5089295;28;20423;-77
2020/12/29 05:54:19;;;;;;;3.20;2.87;;;2.80;99.90;;;;;;5087878;28;20467;-77
2020/12/29 05:56:46;;;;;;;4.33;3.40;;;2.90;99.90;;;;;;5088772;28;20458;-77
2020/12/29 05:59:13;;;;;;;3.57;3.03;;;2.70;99.90;;;;;;5089988;28;20442;-77
2020/12/29 06:01:40;;;;;;;4.10;3.10;;;3.10;99.90;;;;;;5089811;28;20450;-77
2020/12/29 06:04:06;;;;;;;3.20;3.00;;;3.10;99.90;;;;;;5089441;28;20459;-77
2020/12/29 06:06:34;;;;;;;3.43;2.77;;;3.00;99.90;;;;;;5088539;28;20418;-77
2020/12/29 06:09:06;;;;;;;3.63;3.10;;;3.10;99.90;;;;;;5088451;28;20460;-77
2020/12/29 06:11:47;;;;;;;4.73;2.93;;;3.20;99.90;;;;;;5089754;28;20430;-77
2020/12/29 06:14:15;;;;;;;3.90;3.10;;;3.10;99.90;;;;;;5089167;28;20422;-78
2020/12/29 06:16:43;;;;;;;3.87;2.90;;;3.20;99.90;;;;;;5088271;28;20462;-77
2020/12/29 06:19:32;;;;;;;3.30;3.00;;;3.10;99.90;;;;;;5089796;28;20422;-77
2020/12/29 06:22:23;;;;;;;3.07;2.77;;;3.10;99.90;;;;;;5083827;28;20979;-77
2020/12/29 06:24:48;;;;;;;3.67;2.97;;;2.80;99.90;;;;;;5071090;28;20415;-77
2020/12/29 06:27:14;;;;;;;3.53;3.23;;;2.90;99.90;;;;;;5088344;28;20429;-77
2020/12/29 06:29:42;;;;;;;3.27;2.97;;;3.00;99.90;;;;;;5088361;28;20192;-78
2020/12/29 06:32:16;;;;;;;4.47;3.97;;;2.80;99.90;;;;;;5087281;28;20215;-77
2020/12/29 06:34:44;;;;;;;4.00;3.53;;;2.70;99.90;;;;;;5093479;28;20424;-77
2020/12/29 06:37:26;;;;;;;4.67;3.33;;;2.60;99.90;;;;;;5075435;28;20808;-77
2020/12/29 06:40:07;;;;;;;3.73;3.33;;;2.80;99.90;;;;;;5092418;28;21115;-77
2020/12/29 06:42:37;;;;;;;5.10;3.80;;;2.80;99.90;;;;;;5081636;28;21241;-77
2020/12/29 06:45:06;;;;;;;5.60;3.30;;;2.70;99.90;;;;;;5092685;28;20414;-77
2020/12/29 06:47:32;;;;;;;4.80;3.90;;;2.50;99.90;;;;;;5092297;28;20482;-77
2020/12/29 06:49:57;;;;;;;5.27;4.10;;;2.80;99.90;;;;;;5093176;28;20900;-77
2020/12/29 06:52:32;;;;;;;4.87;3.80;;;2.80;99.90;;;;;;5093278;28;20682;-77
2020/12/29 06:55:00;;;;;;;4.13;3.73;;;2.70;99.90;;;;;;5092101;28;20184;-78
2020/12/29 06:57:35;;;;;;;5.30;4.27;;;2.80;99.90;;;;;;5091450;28;20469;-77
2020/12/29 07:00:14;;;;;;;4.87;4.40;;;2.70;99.90;;;;;;5092809;28;20424;-78
2020/12/29 07:02:41;;;;;;;4.77;4.33;;;3.00;99.90;;;;;;5093372;28;20416;-79
2020/12/29 07:05:24;;;;;;;4.90;4.40;;;2.70;99.90;;;;;;5085277;28;20407;-78
2020/12/29 07:08:01;;;;;;;4.40;4.00;;;2.90;99.90;;;;;;5091196;28;20517;-79
2020/12/29 07:10:35;;;;;;;5.37;3.60;;;3.00;99.90;;;;;;5090749;28;21080;-78
2020/12/29 07:13:06;;;;;;;4.33;3.93;;;2.90;99.90;;;;;;5092587;28;20409;-78
2020/12/29 07:15:43;;;;;;;5.77;4.47;;;2.70;99.90;;;;;;5074662;28;20437;-78
2020/12/29 07:18:09;;;;;;;4.90;4.13;;;2.60;99.90;;;;;;5079953;28;20458;-78
2020/12/29 07:20:35;;;;;;;6.70;4.70;;;2.70;99.90;;;;;;5092878;28;20425;-78
2020/12/29 07:23:07;;;;;;;6.90;4.50;;;2.90;99.90;;;;;;5091378;28;20422;-78
2020/12/29 07:25:34;;;;;;;4.87;4.37;;;2.70;99.90;;;;;;5087614;28;20509;-78
2020/12/29 07:28:07;;;;;;;4.80;4.30;;;3.00;99.90;;;;;;5091974;28;20407;-78
2020/12/29 07:30:35;;;;;;;5.83;5.23;;;3.00;99.90;;;;;;5087254;28;20426;-78
2020/12/29 07:33:06;;;;;;;5.43;4.93;;;3.00;99.90;;;;;;5090669;28;20910;-78
2020/12/29 07:35:39;;;;;;;6.83;4.60;;;2.80;99.90;;;;;;5091263;28;20418;-78
2020/12/29 07:38:25;;;;;;;5.83;4.73;;;2.90;99.90;;;;;;5091186;28;20500;-79
2020/12/29 07:40:52;;;;;;;7.43;4.87;;;3.00;99.90;;;;;;5079799;28;20804;-78
2020/12/29 07:43:18;;;;;;;8.00;4.90;;;2.80;99.90;;;;;;5090457;28;20505;-78
2020/12/29 07:45:44;;;;;;;8.27;4.87;;;2.80;99.90;;;;;;5091944;28;20493;-78
2020/12/29 07:48:10;;;;;;;6.50;5.17;;;2.90;99.90;;;;;;5090782;28;20634;-78
2020/12/29 07:50:37;;;;;;;6.10;5.43;;;2.70;99.90;;;;;;5092478;28;20464;-79
2020/12/29 07:53:11;;;;;;;8.37;6.00;;;2.80;99.90;;;;;;5090260;28;20180;-79
2020/12/29 07:55:41;;;;;;;9.27;5.77;;;2.90;99.90;;;;;;5092470;28;20422;-78
2020/12/29 07:58:08;;;;;;;7.93;6.10;;;2.90;99.90;;;;;;5073922;28;21006;-78
2020/12/29 08:00:35;;;;;;;8.77;5.60;;;2.60;99.90;;;;;;5090482;28;20463;-78
2020/12/29 08:03:01;;;;;;;7.07;5.97;;;2.90;99.90;;;;;;5091076;28;20475;-78
2020/12/29 08:05:29;;;;;;;8.60;6.20;;;2.90;99.90;;;;;;5091984;28;20422;-79
2020/12/29 08:08:00;;;;;;;9.70;6.80;;;2.90;99.90;;;;;;5084456;28;20996;-84
2020/12/29 08:10:28;;;;;;;8.13;6.60;;;2.90;99.90;;;;;;5083356;28;20455;-83
2020/12/29 08:12:55;;;;;;;10.97;7.43;;;2.90;99.90;;;;;;5088672;28;20418;-83
2020/12/29 08:15:26;;;;;;;7.70;6.37;;;2.90;99.90;;;;;;5092148;28;21069;-83
2020/12/29 08:18:15;;;;;;;8.30;6.77;;;3.20;99.90;;;;;;5093545;28;20462;-83
2020/12/29 08:20:47;;;;;;;10.80;8.10;;;3.20;99.90;;;;;;5084916;28;20507;-83
2020/12/29 08:23:15;;;;;;;8.93;7.20;;;3.00;99.90;;;;;;5087263;28;20944;-83
2020/12/29 08:25:50;;;;;;;8.33;7.50;;;3.20;99.90;;;;;;5082619;28;20566;-83
2020/12/29 08:28:16;;;;;;;9.80;7.13;;;3.30;99.90;;;;;;5082113;28;20427;-83
2020/12/29 08:30:44;;;;;;;10.20;7.90;;;3.50;99.90;;;;;;5082844;28;20426;-84
2020/12/29 08:33:13;;;;;;;12.47;8.20;;;3.20;99.90;;;;;;5092661;28;20972;-83
2020/12/29 08:35:47;;;;;;;8.17;7.23;;;3.50;99.90;;;;;;5074997;28;20972;-83
2020/12/29 08:38:30;;;;;;;10.77;7.90;;;3.40;99.90;;;;;;5093134;28;20967;-84
2020/12/29 08:41:08;;;;;;;9.90;8.40;;;3.50;99.90;;;;;;5093292;28;20793;-83
2020/12/29 08:43:41;;;;;;;12.13;8.80;;;3.40;99.90;;;;;;5092649;28;20434;-83
2020/12/29 08:46:08;;;;;;;9.83;8.20;;;3.60;99.90;;;;;;5093139;28;20913;-85
2020/12/29 08:48:34;;;;;;;10.80;8.63;;;3.70;99.90;;;;;;5074372;28;20423;-84
2020/12/29 08:51:01;;;;;;;14.60;9.17;;;3.70;99.90;;;;;;5083753;28;20418;-84
2020/12/29 08:53:30;;;;;;;16.63;9.40;;;3.50;99.90;;;;;;5076896;28;20478;-84
2020/12/29 08:55:56;;;;;;;12.90;10.23;;;3.80;99.90;;;;;;5092085;28;20422;-84
2020/12/29 08:58:24;;;;;;;9.60;8.10;;;3.50;99.90;;;;;;5092772;28;20979;-85
2020/12/29 09:00:51;;;;;;;11.53;9.30;;;3.70;99.90;;;;;;5092869;28;20276;-84
2020/12/29 09:03:27;;;;;;;9.43;8.10;;;3.50;99.90;;;;;;5091771;28;20462;-86
2020/12/29 09:05:54;;;;;;;10.43;7.87;;;3.40;99.90;;;;;;5091312;28;20422;-84
2020/12/29 09:08:30;;;;;;;12.03;8.00;;;3.70;99.90;;;;;;5092618;28;20472;-85
2020/12/29 09:11:15;;;;;;;9.77;7.30;;;3.80;99.90;;;;;;5091617;28;20636;-84
2020/12/29 09:14:04;;;;;;;8.77;6.80;;;3.90;99.90;;;;;;5091030;28;20426;-84
2020/12/29 09:16:30;;;;;;;10.50;7.40;;;3.70;99.90;;;;;;5085122;28;20520;-83
2020/12/29 09:18:56;;;;;;;9.80;7.70;;;4.00;99.90;;;;;;5092545;28;21003;-84
2020/12/29 09:21:23;;;;;;;10.07;7.40;;;4.00;99.90;;;;;;5092623;28;20505;-84
2020/12/29 09:24:05;;;;;;;9.23;7.40;;;3.90;99.90;;;;;;5092171;28;20490;-84
2020/12/29 09:26:30;;;;;;;11.87;7.73;;;4.10;99.90;;;;;;5092477;28;20415;-84
2020/12/29 09:28:57;;;;;;;10.30;7.47;;;4.10;99.90;;;;;;5092374;28;20509;-84
2020/12/29 09:31:28;;;;;;;10.27;7.77;;;3.80;99.90;;;;;;5090760;28;20180;-84
2020/12/29 09:33:55;;;;;;;14.70;8.17;;;3.90;99.90;;;;;;5090372;28;20841;-84
2020/12/29 09:36:26;;;;;;;11.80;8.87;;;3.80;99.90;;;;;;5092471;28;20469;-84
2020/12/29 09:38:53;;;;;;;8.77;7.83;;;3.70;99.90;;;;;;5091410;28;20471;-84
2020/12/29 09:41:19;;;;;;;11.07;8.47;;;4.00;99.90;;;;;;5092230;28;20422;-84
2020/12/29 09:43:49;;;;;;;11.33;8.37;;;4.10;99.90;;;;;;5090511;28;20784;-84
2020/12/29 09:46:15;;;;;;;10.57;8.60;;;4.00;99.90;;;;;;5091073;28;20775;-85
2020/12/29 09:48:42;;;;;;;11.40;8.20;;;4.00;99.90;;;;;;5087522;28;20825;-84
2020/12/29 09:51:11;;;;;;;11.10;8.30;;;4.00;99.90;;;;;;5083360;28;20442;-84
2020/12/29 09:53:36;;;;;;;9.57;8.27;;;4.00;99.90;;;;;;5090271;28;20513;-85
2020/12/29 09:56:02;;;;;;;9.33;8.37;;;4.20;99.90;;;;;;5070458;28;20507;-84
2020/12/29 09:58:28;;;;;;;10.83;8.50;;;4.50;99.90;;;;;;5089116;28;20184;-84
2020/12/29 10:00:54;;;;;;;9.30;8.40;;;4.30;99.90;;;;;;5092399;28;20421;-84
2020/12/29 10:03:20;;;;;;;9.70;7.80;;;4.50;99.90;;;;;;5091296;28;20188;-83
2020/12/29 10:05:48;;;;;;;9.57;8.17;;;4.20;99.90;;;;;;5090974;28;20454;-84
2020/12/29 10:08:14;;;;;;;9.20;7.93;;;4.10;99.90;;;;;;5090453;28;20466;-84
2020/12/29 10:10:40;;;;;;;10.90;8.70;;;4.10;99.90;;;;;;5090762;28;20497;-85
2020/12/29 10:13:06;;;;;;;10.90;8.33;;;4.30;99.90;;;;;;5091416;28;20188;-84
2020/12/29 10:15:31;;;;;;;15.80;9.23;;;4.40;99.90;;;;;;5091539;28;20199;-84
2020/12/29 10:18:00;;;;;;;12.80;8.87;;;4.10;99.90;;;;;;5091675;28;20230;-83
2020/12/29 10:20:26;;;;;;;10.57;8.83;;;4.10;99.90;;;;;;5073954;28;20426;-83
2020/12/29 10:22:51;;;;;;;10.67;8.77;;;4.10;99.90;;;;;;5089986;28;20476;-84
2020/12/29 10:25:17;;;;;;;10.50;8.37;;;4.20;99.90;;;;;;5091213;28;20551;-85
2020/12/29 10:27:45;;;;;;;11.43;8.70;;;4.40;99.90;;;;;;5091252;28;20188;-83
2020/12/29 10:30:11;;;;;;;11.30;8.53;;;4.20;99.90;;;;;;5091187;28;20279;-84
2020/12/29 10:32:38;;;;;;;11.97;8.77;;;4.40;99.90;;;;;;5089373;28;20541;-84
2020/12/29 10:35:04;;;;;;;8.80;7.30;;;4.00;99.90;;;;;;5089272;28;20423;-84
2020/12/29 10:37:29;;;;;;;10.50;7.43;;;4.20;99.90;;;;;;5091279;28;20463;-84
2020/12/29 10:39:55;;;;;;;11.60;9.07;;;4.10;99.90;;;;;;5091474;28;20554;-84
2020/12/29 10:42:21;;;;;;;13.47;9.20;;;4.20;99.90;;;;;;5091588;28;20192;-84
2020/12/29 10:44:47;;;;;;;17.07;11.13;;;4.20;99.90;;;;;;5091008;28;20238;-84
2020/12/29 10:47:12;;;;;;;14.10;10.50;;;4.40;99.90;;;;;;5090319;28;20219;-84
2020/12/29 10:49:41;;;;;;;16.43;11.30;;;4.30;99.90;;;;;;5090161;28;20188;-84
2020/12/29 10:52:06;;;;;;;14.23;10.60;;;4.50;99.90;;;;;;5079645;28;20261;-84
2020/12/29 10:54:32;;;;;;;14.93;11.00;;;4.40;99.90;;;;;;5090651;28;20426;-84
2020/12/29 10:56:58;;;;;;;14.70;10.77;;;4.20;99.90;;;;;;5090007;28;20216;-84
2020/12/29 10:59:24;;;;;;;17.57;11.30;;;4.20;99.90;;;;;;5090035;28;20244;-84
2020/12/29 11:01:55;;;;;;;15.83;11.53;;;4.30;99.90;;;;;;5091279;28;20261;-83
2020/12/29 11:04:22;;;;;;;21.93;13.57;;;4.10;99.90;;;;;;5089824;28;20211;-84
2020/12/29 11:06:48;;;;;;;16.10;12.77;;;4.00;99.90;;;;;;5091250;28;20905;-84
2020/12/29 11:09:17;;;;;;;20.13;12.97;;;4.20;99.90;;;;;;5073462;28;20517;-85
2020/12/29 11:11:42;;;;;;;14.03;11.50;;;4.20;99.90;;;;;;5091278;28;20322;-84
2020/12/29 11:14:08;;;;;;;22.03;13.87;;;4.00;99.90;;;;;;5090668;28;20501;-84
2020/12/29 11:16:34;;;;;;;19.00;13.20;;;4.30;99.90;;;;;;5090968;28;20220;-84
2020/12/29 11:18:59;;;;;;;17.03;13.80;;;4.20;99.90;;;;;;5091315;28;20188;-84
2020/12/29 11:21:25;;;;;;;18.70;13.90;;;4.10;99.90;;;;;;5086416;28;20785;-84
2020/12/29 11:23:51;;;;;;;17.07;13.60;;;4.00;99.90;;;;;;5086618;28;20195;-84
2020/12/29 11:26:20;;;;;;;18.47;13.00;;;4.20;99.90;;;;;;5093161;28;20184;-83
2020/12/29 11:28:47;;;;;;;20.70;13.63;;;4.20;99.90;;;;;;5094660;28;20531;-84
2020/12/29 11:31:21;;;;;;;19.90;14.63;;;4.10;99.90;;;;;;5087791;28;20505;-84
2020/12/29 11:33:48;;;;;;;16.20;13.77;;;4.20;99.90;;;;;;5078942;28;20907;-84
2020/12/29 11:36:23;;;;;;;24.73;15.27;;;4.30;99.90;;;;;;5083601;28;20430;-84
2020/12/29 11:38:49;;;;;;;19.50;15.30;;;3.90;99.90;;;;;;5079410;28;20417;-83
2020/12/29 11:41:15;;;;;;;17.57;13.70;;;3.90;99.90;;;;;;5094375;28;20418;-85
2020/12/29 11:43:41;;;;;;;20.43;14.47;;;4.00;99.90;;;;;;5092666;28;20422;-85
2020/12/29 11:46:08;;;;;;;22.90;16.47;;;3.80;99.90;;;;;;5085811;28;20216;-85
2020/12/29 11:48:34;;;;;;;23.83;14.93;;;4.10;99.90;;;;;;5092813;28;20426;-85
2020/12/29 11:51:00;;;;;;;19.17;14.90;;;4.00;99.90;;;;;;5072744;28;20435;-85
2020/12/29 11:53:26;;;;;;;22.90;15.13;;;3.90;99.90;;;;;;5083160;28;20188;-85
2020/12/29 11:55:52;;;;;;;23.03;15.23;;;4.20;99.90;;;;;;5094534;28;20783;-85
2020/12/29 11:58:18;;;;;;;24.90;16.47;;;4.10;99.90;;;;;;5093105;28;20552;-85
2020/12/29 12:00:44;;;;;;;24.63;17.20;;;4.10;99.90;;;;;;5094425;28;20188;-85
2020/12/29 12:03:10;;;;;;;23.07;16.53;;;3.80;99.90;;;;;;5089631;28;20185;-84
2020/12/29 12:05:35;;;;;;;23.13;16.37;;;3.80;99.90;;;;;;5084447;28;20480;-85
2020/12/29 12:08:01;;;;;;;25.60;15.50;;;3.90;99.90;;;;;;5093992;28;20246;-85
2020/12/29 12:10:27;;;;;;;25.37;16.70;;;4.00;99.90;;;;;;5094369;28;20185;-84
2020/12/29 12:12:52;;;;;;;22.80;16.03;;;4.00;99.90;;;;;;5093862;28;20189;-84
2020/12/29 12:15:18;;;;;;;27.20;17.53;;;4.10;99.90;;;;;;5082354;28;20295;-85
2020/12/29 12:17:44;;;;;;;27.33;17.20;;;4.10;99.90;;;;;;5089085;28;20720;-85
2020/12/29 12:20:09;;;;;;;27.33;17.33;;;4.10;99.90;;;;;;5092647;28;20271;-84
2020/12/29 12:22:35;;;;;;;25.87;17.93;;;4.10;99.90;;;;;;5093898;28;20180;-85
2020/12/29 12:25:01;;;;;;;24.77;18.20;;;4.00;99.90;;;;;;5093268;28;20187;-85
2020/12/29 12:27:26;;;;;;;26.90;17.50;;;3.80;99.90;;;;;;5055252;28;20559;-85
2020/12/29 12:29:52;;;;;;;31.00;19.00;;;3.90;99.90;;;;;;5083799;28;20224;-85
2020/12/29 12:32:19;;;;;;;27.23;17.80;;;4.10;99.90;;;;;;5094007;28;20188;-90
2020/12/29 12:34:48;;;;;;;29.87;17.67;;;4.10;99.90;;;;;;5078311;28;20213;-91
2020/12/29 12:37:14;;;;;;;26.47;18.20;;;4.00;99.90;;;;;;5081032;28;20565;-92
2020/12/29 12:39:42;;;;;;;30.83;18.63;;;4.10;99.90;;;;;;5095835;28;20465;-91
2020/12/29 12:42:09;;;;;;;28.37;19.57;;;4.00;99.90;;;;;;5077367;28;20475;-88
2020/12/29 12:44:40;;;;;;;30.73;20.00;;;3.80;99.90;;;;;;5093592;28;20397;-89
2020/12/29 12:47:07;;;;;;;28.20;18.40;;;4.00;99.90;;;;;;5078303;28;20923;-91
2020/12/29 12:49:35;;;;;;;29.03;19.00;;;4.00;99.90;;;;;;5095645;28;20441;-91
2020/12/29 12:52:01;;;;;;;30.87;19.40;;;3.90;99.90;;;;;;5095084;28;20423;-89
2020/12/29 12:54:26;;;;;;;28.60;18.73;;;4.20;99.90;;;;;;5093108;28;20230;-90
2020/12/29 12:56:56;;;;;;;27.47;18.63;;;4.30;99.90;;;;;;5094125;28;20224;-89